Terminal Aerodrome Forecast
Issued by NWS Twin Cities, MN

Home | Current Version | Previous Version | Graphics & Text | Print | Product List | Glossary On
Versions: 1 2 3 4 5 6 7 8 9 10 11 12 13 14 15 16 17
000
FTUS43 KMPX 281736 CCA
TAFSTC
TAF COR
KSTC 281736Z 2818/2918 07010KT P6SM -RA FEW025 BKN040 OVC060
     FM290200 04004KT P6SM VCSH BKN040 OVC080
     FM290600 03005KT P6SM SCT050 BKN100=

USA.gov is the U.S. government's official web portal to all federal, state and local government web resources and services.